Friday, October 31, 2014
07:03 UTC
  |  Log In   |  Register Free
Airport Search:

Lonesome Pine Airport
(KLNP)

Lonesome Pine Airport Diagram
No Airport Diagram Available

FAA data valid effective September 18, 2014 - November 13, 2014 (unless otherwise noted).

 
 
 
 
 
 
 
 
 
 
 
 
 
 

Current Aviation Weather for Lonesome Pine Airport (KLNP)

The most recent METAR observation for KLNP was updated at: 0612
METAR Summary (Translated METAR)
KLNP
310555Z AUTO 00000KT 10SM CLR 03/01 A3001 RMK AO2
KVJI
310555Z AUTO 00000KT 10SM CLR 04/02 A3000 RMK AO2 T00410022 10082 20041
(29.9 nm SE from KLNP)
KTRI
310553Z 00000KT 10SM FEW030 SCT250 03/03 A3000 RMK AO2 SLP151 T00330028 10083 20028 58003
(31.3 nm SE from KLNP)
TAF Summary (Translated TAF)
KTRI
(31.3 nm SE from KLNP)
310531Z 3106/0106 00000KT P6SM SCT250 FM310800 00000KT 4SM BR SCT250 TEMPO 3109/3112 2SM BR BKN250 FM311200 00000KT 4SM BR OVC100 FM311400 VRB03KT P6SM OVC100 FM311800 27005KT P6SM VCSH OVC050 FM312200 27005KT 4SM -RA BR OVC025 FM010000 28006KT 4SM -RA BR OVC015
  Airport Weather Conditions for KLNP

 Current Weather at LNP
37° F
Fair
North winds at 0.0 mph
LNP NOAA Radar

Pressure: 30.01 in
Humidity: 87%
Wind: Calm
Dew Point: 33.8°F
Visibility: 10.00 mi


Airport Weather Forecast for KLNP

Translated METAR and TAF for KLNP
Translated METAR for KLNP (0658 UTC 31 October 2014)
found at http://aviationweather.gov/adds/metars/
 
METAR text: KLNP 310635Z AUTO 00000KT 10SM CLR 02/02 A3000 RMK AO2
Conditions at: KLNP (WISE/LONESOME PI, VA, US) observed 0635 UTC 31 October 2014
Temperature: 2.0°C (36°F)
Dewpoint: 2.0°C (36°F) [RH = 100%]
Pressure (altimeter): 30.00 inches Hg (1016.0 mb)
Winds: calm
Visibility: 10 or more miles (16+ km)
Ceiling: at least 12,000 feet AGL
Clouds: sky clear below 12,000 feet AGL
Weather: automated observation with no human augmentation;
there may or may not be significant weather present at this time
Translated TAF for KLNP

There is no translated TAF available for this airport

Find All Airport Services Find A Hotel Find A Rental Car Find A Golf Course Find A Restaurant $100 Hamburger



FBO's on the Field
FBO Company Facility Photos Services Transportation Aviation Fuel Prices: Prices include tax
Catering Weather Repair Courtesy Rental Type 100LL JetA JetA+ MOGAS 8087
 
Lonesome Pine Airport

This FBO has not yet been rated
FS:Shell
Last Updated: Sep-24
Login to update fuel prices
SS:
Contact Lonesome Pine AirportMore FBO Information
 
Add another FBO Facility Photos Catering Weather Repair Courtesy Rental Type 100LL JetA JetA+ MOGAS 8087
Services Transportation Aviation Fuel Prices: Prices include tax


model-print
model-print
model-print
model-print